sensor_id;sensor_type;location;lat;lon;timestamp;temperature;humidity
48551;DHT22;34397;51.176;6.738;2022-08-19T00:01:08;20.50;54.70
48551;DHT22;34397;51.176;6.738;2022-08-19T00:03:40;20.50;54.70
48551;DHT22;34397;51.176;6.738;2022-08-19T00:06:13;20.40;54.60
48551;DHT22;34397;51.176;6.738;2022-08-19T00:08:45;20.40;54.70
48551;DHT22;34397;51.176;6.738;2022-08-19T00:11:17;20.40;54.80
48551;DHT22;34397;51.176;6.738;2022-08-19T00:13:49;20.30;54.90
48551;DHT22;34397;51.176;6.738;2022-08-19T00:16:22;20.30;54.90
48551;DHT22;34397;51.176;6.738;2022-08-19T00:18:54;20.30;55.00
48551;DHT22;34397;51.176;6.738;2022-08-19T00:21:28;20.30;55.10
48551;DHT22;34397;51.176;6.738;2022-08-19T00:24:00;20.20;55.10
48551;DHT22;34397;51.176;6.738;2022-08-19T00:26:32;20.20;55.10
48551;DHT22;34397;51.176;6.738;2022-08-19T00:29:06;20.20;55.10
48551;DHT22;34397;51.176;6.738;2022-08-19T00:31:40;20.20;55.20
48551;DHT22;34397;51.176;6.738;2022-08-19T00:34:12;20.20;55.20
48551;DHT22;34397;51.176;6.738;2022-08-19T00:36:46;20.20;55.30
48551;DHT22;34397;51.176;6.738;2022-08-19T00:39:18;20.20;54.90
48551;DHT22;34397;51.176;6.738;2022-08-19T00:41:51;20.20;55.10
48551;DHT22;34397;51.176;6.738;2022-08-19T00:44:26;20.10;55.10
48551;DHT22;34397;51.176;6.738;2022-08-19T00:46:59;20.10;55.40
48551;DHT22;34397;51.176;6.738;2022-08-19T00:49:33;20.10;55.40
48551;DHT22;34397;51.176;6.738;2022-08-19T00:52:12;20.00;55.40
48551;DHT22;34397;51.176;6.738;2022-08-19T00:54:46;20.00;55.60
48551;DHT22;34397;51.176;6.738;2022-08-19T00:57:23;20.00;55.50
48551;DHT22;34397;51.176;6.738;2022-08-19T00:59:59;20.00;55.70
48551;DHT22;34397;51.176;6.738;2022-08-19T01:02:33;20.00;55.60
48551;DHT22;34397;51.176;6.738;2022-08-19T01:05:09;19.90;55.70
48551;DHT22;34397;51.176;6.738;2022-08-19T01:07:45;19.90;56.00
48551;DHT22;34397;51.176;6.738;2022-08-19T01:10:20;19.90;55.80
48551;DHT22;34397;51.176;6.738;2022-08-19T01:12:55;19.90;55.90
48551;DHT22;34397;51.176;6.738;2022-08-19T01:15:30;19.90;55.80
48551;DHT22;34397;51.176;6.738;2022-08-19T01:18:10;19.80;55.70
48551;DHT22;34397;51.176;6.738;2022-08-19T01:20:43;19.80;55.90
48551;DHT22;34397;51.176;6.738;2022-08-19T01:23:17;19.80;56.40
48551;DHT22;34397;51.176;6.738;2022-08-19T01:25:51;19.70;56.00
48551;DHT22;34397;51.176;6.738;2022-08-19T01:28:26;19.70;56.20
48551;DHT22;34397;51.176;6.738;2022-08-19T01:30:59;19.70;56.40
48551;DHT22;34397;51.176;6.738;2022-08-19T01:33:30;19.70;56.40
48551;DHT22;34397;51.176;6.738;2022-08-19T01:36:07;19.70;56.30
48551;DHT22;34397;51.176;6.738;2022-08-19T01:38:43;19.70;56.40
48551;DHT22;34397;51.176;6.738;2022-08-19T01:41:17;19.70;56.30
48551;DHT22;34397;51.176;6.738;2022-08-19T01:43:49;19.70;56.30
48551;DHT22;34397;51.176;6.738;2022-08-19T01:46:21;19.70;55.50
48551;DHT22;34397;51.176;6.738;2022-08-19T01:48:53;19.70;56.00
48551;DHT22;34397;51.176;6.738;2022-08-19T01:51:26;19.70;56.10
48551;DHT22;34397;51.176;6.738;2022-08-19T01:53:59;19.60;56.20
48551;DHT22;34397;51.176;6.738;2022-08-19T01:56:31;19.60;56.30
48551;DHT22;34397;51.176;6.738;2022-08-19T01:59:06;19.60;56.30
48551;DHT22;34397;51.176;6.738;2022-08-19T02:01:45;19.60;56.40
48551;DHT22;34397;51.176;6.738;2022-08-19T02:04:17;19.50;56.40
48551;DHT22;34397;51.176;6.738;2022-08-19T02:06:48;19.50;56.50
48551;DHT22;34397;51.176;6.738;2022-08-19T02:09:22;19.50;56.70
48551;DHT22;34397;51.176;6.738;2022-08-19T02:11:54;19.50;56.70
48551;DHT22;34397;51.176;6.738;2022-08-19T02:14:26;19.50;56.50
48551;DHT22;34397;51.176;6.738;2022-08-19T02:16:57;19.50;56.60
48551;DHT22;34397;51.176;6.738;2022-08-19T02:19:29;19.50;56.70
48551;DHT22;34397;51.176;6.738;2022-08-19T02:22:03;19.40;56.70
48551;DHT22;34397;51.176;6.738;2022-08-19T02:24:37;19.40;56.80
48551;DHT22;34397;51.176;6.738;2022-08-19T02:27:09;19.40;57.00
48551;DHT22;34397;51.176;6.738;2022-08-19T02:29:41;19.30;56.50
48551;DHT22;34397;51.176;6.738;2022-08-19T02:32:13;19.30;56.60
48551;DHT22;34397;51.176;6.738;2022-08-19T02:34:45;19.30;56.70
48551;DHT22;34397;51.176;6.738;2022-08-19T02:37:17;19.30;57.00
48551;DHT22;34397;51.176;6.738;2022-08-19T02:40:09;19.30;57.30
48551;DHT22;34397;51.176;6.738;2022-08-19T02:42:41;19.30;57.20
48551;DHT22;34397;51.176;6.738;2022-08-19T02:45:13;19.30;57.20
48551;DHT22;34397;51.176;6.738;2022-08-19T02:47:45;19.30;57.20
48551;DHT22;34397;51.176;6.738;2022-08-19T02:50:17;19.30;57.20
48551;DHT22;34397;51.176;6.738;2022-08-19T02:52:49;19.30;57.20
48551;DHT22;34397;51.176;6.738;2022-08-19T02:55:23;19.30;57.10
48551;DHT22;34397;51.176;6.738;2022-08-19T02:57:55;19.30;57.20
48551;DHT22;34397;51.176;6.738;2022-08-19T03:00:27;19.30;57.90
48551;DHT22;34397;51.176;6.738;2022-08-19T03:02:59;19.20;57.20
48551;DHT22;34397;51.176;6.738;2022-08-19T03:05:31;19.20;57.20
48551;DHT22;34397;51.176;6.738;2022-08-19T03:08:03;19.20;57.20
48551;DHT22;34397;51.176;6.738;2022-08-19T03:10:42;19.10;57.30
48551;DHT22;34397;51.176;6.738;2022-08-19T03:13:17;19.10;57.60
48551;DHT22;34397;51.176;6.738;2022-08-19T03:15:49;19.10;57.60
48551;DHT22;34397;51.176;6.738;2022-08-19T03:18:21;19.10;57.50
48551;DHT22;34397;51.176;6.738;2022-08-19T03:20:53;19.10;57.50
48551;DHT22;34397;51.176;6.738;2022-08-19T03:23:25;19.10;57.60
48551;DHT22;34397;51.176;6.738;2022-08-19T03:25:58;19.10;57.70
48551;DHT22;34397;51.176;6.738;2022-08-19T03:28:31;19.00;57.70
48551;DHT22;34397;51.176;6.738;2022-08-19T03:31:07;19.00;57.70
48551;DHT22;34397;51.176;6.738;2022-08-19T03:33:41;19.00;58.50
48551;DHT22;34397;51.176;6.738;2022-08-19T03:36:15;19.00;57.80
48551;DHT22;34397;51.176;6.738;2022-08-19T03:38:53;19.00;58.10
48551;DHT22;34397;51.176;6.738;2022-08-19T03:41:29;19.00;58.10
48551;DHT22;34397;51.176;6.738;2022-08-19T03:44:03;18.90;58.10
48551;DHT22;34397;51.176;6.738;2022-08-19T03:46:35;18.90;58.10
48551;DHT22;34397;51.176;6.738;2022-08-19T03:49:08;18.80;58.40
48551;DHT22;34397;51.176;6.738;2022-08-19T03:51:42;18.80;58.40
48551;DHT22;34397;51.176;6.738;2022-08-19T03:54:15;18.80;58.40
48551;DHT22;34397;51.176;6.738;2022-08-19T03:56:52;18.80;58.50
48551;DHT22;34397;51.176;6.738;2022-08-19T03:59:27;18.80;58.60
48551;DHT22;34397;51.176;6.738;2022-08-19T04:02:02;18.80;59.20
48551;DHT22;34397;51.176;6.738;2022-08-19T04:04:42;18.80;58.70
48551;DHT22;34397;51.176;6.738;2022-08-19T04:07:14;18.80;58.60
48551;DHT22;34397;51.176;6.738;2022-08-19T04:09:48;18.80;58.30
48551;DHT22;34397;51.176;6.738;2022-08-19T04:12:23;18.80;58.30
48551;DHT22;34397;51.176;6.738;2022-08-19T04:14:55;18.80;58.40
48551;DHT22;34397;51.176;6.738;2022-08-19T04:17:27;18.80;57.60
48551;DHT22;34397;51.176;6.738;2022-08-19T04:19:59;18.90;58.00
48551;DHT22;34397;51.176;6.738;2022-08-19T04:22:31;18.90;58.10
48551;DHT22;34397;51.176;6.738;2022-08-19T04:25:03;18.90;58.10
48551;DHT22;34397;51.176;6.738;2022-08-19T04:27:37;18.80;58.00
48551;DHT22;34397;51.176;6.738;2022-08-19T04:30:09;18.80;58.20
48551;DHT22;34397;51.176;6.738;2022-08-19T04:32:41;18.80;57.50
48551;DHT22;34397;51.176;6.738;2022-08-19T04:35:14;18.80;57.80
48551;DHT22;34397;51.176;6.738;2022-08-19T04:37:46;18.80;57.90
48551;DHT22;34397;51.176;6.738;2022-08-19T04:40:18;18.70;58.00
48551;DHT22;34397;51.176;6.738;2022-08-19T04:43:14;18.70;58.10
48551;DHT22;34397;51.176;6.738;2022-08-19T04:45:46;18.70;58.40
48551;DHT22;34397;51.176;6.738;2022-08-19T04:48:18;18.60;58.30
48551;DHT22;34397;51.176;6.738;2022-08-19T04:50:57;18.60;58.20
48551;DHT22;34397;51.176;6.738;2022-08-19T04:53:31;18.60;58.40
48551;DHT22;34397;51.176;6.738;2022-08-19T04:56:06;18.60;58.50
48551;DHT22;34397;51.176;6.738;2022-08-19T04:58:42;18.60;58.60
48551;DHT22;34397;51.176;6.738;2022-08-19T05:01:18;18.60;58.70
48551;DHT22;34397;51.176;6.738;2022-08-19T05:03:51;18.60;58.80
48551;DHT22;34397;51.176;6.738;2022-08-19T05:06:23;18.60;58.70
48551;DHT22;34397;51.176;6.738;2022-08-19T05:08:55;18.60;58.80
48551;DHT22;34397;51.176;6.738;2022-08-19T05:11:30;18.60;58.80
48551;DHT22;34397;51.176;6.738;2022-08-19T05:14:05;18.60;59.00
48551;DHT22;34397;51.176;6.738;2022-08-19T05:16:37;18.60;59.20
48551;DHT22;34397;51.176;6.738;2022-08-19T05:19:09;18.60;59.10
48551;DHT22;34397;51.176;6.738;2022-08-19T05:21:59;18.60;59.30
48551;DHT22;34397;51.176;6.738;2022-08-19T05:24:48;18.60;59.30
48551;DHT22;34397;51.176;6.738;2022-08-19T05:27:20;18.60;59.30
48551;DHT22;34397;51.176;6.738;2022-08-19T05:29:53;18.60;59.50
48551;DHT22;34397;51.176;6.738;2022-08-19T05:32:26;18.60;59.60
48551;DHT22;34397;51.176;6.738;2022-08-19T05:34:58;18.60;59.60
48551;DHT22;34397;51.176;6.738;2022-08-19T05:37:29;18.60;59.70
48551;DHT22;34397;51.176;6.738;2022-08-19T05:40:02;18.70;59.60
48551;DHT22;34397;51.176;6.738;2022-08-19T05:42:35;18.70;59.60
48551;DHT22;34397;51.176;6.738;2022-08-19T05:45:09;18.70;59.60
48551;DHT22;34397;51.176;6.738;2022-08-19T05:47:41;18.80;59.90
48551;DHT22;34397;51.176;6.738;2022-08-19T05:50:15;18.80;59.80
48551;DHT22;34397;51.176;6.738;2022-08-19T05:52:47;18.80;59.90
48551;DHT22;34397;51.176;6.738;2022-08-19T05:55:19;18.90;59.90
48551;DHT22;34397;51.176;6.738;2022-08-19T05:57:52;18.90;59.80
48551;DHT22;34397;51.176;6.738;2022-08-19T06:00:26;19.00;59.80
48551;DHT22;34397;51.176;6.738;2022-08-19T06:03:01;19.00;60.00
48551;DHT22;34397;51.176;6.738;2022-08-19T06:05:34;19.10;60.00
48551;DHT22;34397;51.176;6.738;2022-08-19T06:08:08;19.10;59.80
48551;DHT22;34397;51.176;6.738;2022-08-19T06:10:41;19.20;59.80
48551;DHT22;34397;51.176;6.738;2022-08-19T06:13:13;19.20;59.80
48551;DHT22;34397;51.176;6.738;2022-08-19T06:15:47;19.20;60.00
48551;DHT22;34397;51.176;6.738;2022-08-19T06:18:22;19.20;59.90
48551;DHT22;34397;51.176;6.738;2022-08-19T06:20:55;19.20;59.80
48551;DHT22;34397;51.176;6.738;2022-08-19T06:23:35;19.30;60.40
48551;DHT22;34397;51.176;6.738;2022-08-19T06:26:11;19.30;59.80
48551;DHT22;34397;51.176;6.738;2022-08-19T06:28:46;19.30;59.80
48551;DHT22;34397;51.176;6.738;2022-08-19T06:31:27;19.30;59.50
48551;DHT22;34397;51.176;6.738;2022-08-19T06:33:59;19.30;60.10
48551;DHT22;34397;51.176;6.738;2022-08-19T06:36:36;19.30;59.50
48551;DHT22;34397;51.176;6.738;2022-08-19T06:39:11;19.30;60.00
48551;DHT22;34397;51.176;6.738;2022-08-19T06:41:46;19.40;59.80
48551;DHT22;34397;51.176;6.738;2022-08-19T06:44:21;19.40;59.80
48551;DHT22;34397;51.176;6.738;2022-08-19T06:46:56;19.40;59.80
48551;DHT22;34397;51.176;6.738;2022-08-19T06:49:28;19.40;60.00
48551;DHT22;34397;51.176;6.738;2022-08-19T06:52:01;19.40;59.70
48551;DHT22;34397;51.176;6.738;2022-08-19T06:54:33;19.40;59.90
48551;DHT22;34397;51.176;6.738;2022-08-19T06:57:06;19.40;59.80
48551;DHT22;34397;51.176;6.738;2022-08-19T06:59:39;19.40;59.80
48551;DHT22;34397;51.176;6.738;2022-08-19T07:02:12;19.40;59.80
48551;DHT22;34397;51.176;6.738;2022-08-19T07:04:45;19.40;60.00
48551;DHT22;34397;51.176;6.738;2022-08-19T07:07:17;19.40;60.10
48551;DHT22;34397;51.176;6.738;2022-08-19T07:09:50;19.40;60.20
48551;DHT22;34397;51.176;6.738;2022-08-19T07:12:23;19.40;60.80
48551;DHT22;34397;51.176;6.738;2022-08-19T07:14:55;19.40;60.80
48551;DHT22;34397;51.176;6.738;2022-08-19T07:17:29;19.30;60.70
48551;DHT22;34397;51.176;6.738;2022-08-19T07:20:01;19.40;60.70
48551;DHT22;34397;51.176;6.738;2022-08-19T07:22:33;19.40;61.20
48551;DHT22;34397;51.176;6.738;2022-08-19T07:25:06;19.40;62.40
48551;DHT22;34397;51.176;6.738;2022-08-19T07:27:39;19.40;61.80
48551;DHT22;34397;51.176;6.738;2022-08-19T07:30:11;19.40;61.80
48551;DHT22;34397;51.176;6.738;2022-08-19T07:32:45;19.40;61.70
48551;DHT22;34397;51.176;6.738;2022-08-19T07:35:16;19.50;61.90
48551;DHT22;34397;51.176;6.738;2022-08-19T07:37:50;19.60;61.70
48551;DHT22;34397;51.176;6.738;2022-08-19T07:40:23;19.60;61.60
48551;DHT22;34397;51.176;6.738;2022-08-19T07:42:55;19.70;60.90
48551;DHT22;34397;51.176;6.738;2022-08-19T07:45:27;19.80;60.80
48551;DHT22;34397;51.176;6.738;2022-08-19T07:48:01;19.90;61.30
48551;DHT22;34397;51.176;6.738;2022-08-19T07:50:34;20.00;60.70
48551;DHT22;34397;51.176;6.738;2022-08-19T07:53:06;20.20;59.80
48551;DHT22;34397;51.176;6.738;2022-08-19T07:55:38;20.30;59.50
48551;DHT22;34397;51.176;6.738;2022-08-19T07:58:11;20.40;59.60
48551;DHT22;34397;51.176;6.738;2022-08-19T08:00:46;20.50;59.10
48551;DHT22;34397;51.176;6.738;2022-08-19T08:03:22;20.70;58.90
48551;DHT22;34397;51.176;6.738;2022-08-19T08:06:15;20.70;58.70
48551;DHT22;34397;51.176;6.738;2022-08-19T08:09:08;20.90;57.80
48551;DHT22;34397;51.176;6.738;2022-08-19T08:11:49;20.90;57.70
48551;DHT22;34397;51.176;6.738;2022-08-19T08:14:25;21.10;57.60
48551;DHT22;34397;51.176;6.738;2022-08-19T08:16:59;21.10;57.60
48551;DHT22;34397;51.176;6.738;2022-08-19T08:19:32;21.10;57.90
48551;DHT22;34397;51.176;6.738;2022-08-19T08:22:04;21.20;58.20
48551;DHT22;34397;51.176;6.738;2022-08-19T08:24:37;21.30;57.50
48551;DHT22;34397;51.176;6.738;2022-08-19T08:27:09;21.30;57.20
48551;DHT22;34397;51.176;6.738;2022-08-19T08:29:41;21.40;57.70
48551;DHT22;34397;51.176;6.738;2022-08-19T08:32:14;21.50;57.40
48551;DHT22;34397;51.176;6.738;2022-08-19T08:34:48;21.50;57.40
48551;DHT22;34397;51.176;6.738;2022-08-19T08:37:19;21.70;56.20
48551;DHT22;34397;51.176;6.738;2022-08-19T08:39:52;21.70;56.20
48551;DHT22;34397;51.176;6.738;2022-08-19T08:42:28;21.80;56.20
48551;DHT22;34397;51.176;6.738;2022-08-19T08:45:06;21.80;55.70
48551;DHT22;34397;51.176;6.738;2022-08-19T08:47:49;21.80;55.60
48551;DHT22;34397;51.176;6.738;2022-08-19T08:50:27;21.90;55.00
48551;DHT22;34397;51.176;6.738;2022-08-19T08:53:02;21.90;55.30
48551;DHT22;34397;51.176;6.738;2022-08-19T08:55:37;21.90;54.60
48551;DHT22;34397;51.176;6.738;2022-08-19T08:58:14;21.90;54.70
48551;DHT22;34397;51.176;6.738;2022-08-19T09:00:49;22.00;54.30
48551;DHT22;34397;51.176;6.738;2022-08-19T09:03:22;22.00;54.10
48551;DHT22;34397;51.176;6.738;2022-08-19T09:06:03;22.00;53.40
48551;DHT22;34397;51.176;6.738;2022-08-19T09:08:42;22.00;53.10
48551;DHT22;34397;51.176;6.738;2022-08-19T09:11:22;22.00;52.80
48551;DHT22;34397;51.176;6.738;2022-08-19T09:14:09;22.00;53.40
48551;DHT22;34397;51.176;6.738;2022-08-19T09:16:46;22.00;52.90
48551;DHT22;34397;51.176;6.738;2022-08-19T09:19:18;22.00;53.80
48551;DHT22;34397;51.176;6.738;2022-08-19T09:21:51;22.00;53.30
48551;DHT22;34397;51.176;6.738;2022-08-19T09:24:24;22.10;52.50
48551;DHT22;34397;51.176;6.738;2022-08-19T09:26:55;22.20;52.40
48551;DHT22;34397;51.176;6.738;2022-08-19T09:29:27;22.20;52.40
48551;DHT22;34397;51.176;6.738;2022-08-19T09:31:59;22.20;52.50
48551;DHT22;34397;51.176;6.738;2022-08-19T09:34:32;22.30;51.80
48551;DHT22;34397;51.176;6.738;2022-08-19T09:37:05;22.30;51.70
48551;DHT22;34397;51.176;6.738;2022-08-19T09:39:37;22.30;51.50
48551;DHT22;34397;51.176;6.738;2022-08-19T09:42:11;22.40;51.30
48551;DHT22;34397;51.176;6.738;2022-08-19T09:44:44;22.50;51.20
48551;DHT22;34397;51.176;6.738;2022-08-19T09:47:16;22.60;51.20
48551;DHT22;34397;51.176;6.738;2022-08-19T09:49:47;22.70;51.60
48551;DHT22;34397;51.176;6.738;2022-08-19T09:52:22;22.80;50.50
48551;DHT22;34397;51.176;6.738;2022-08-19T09:54:54;22.90;50.20
48551;DHT22;34397;51.176;6.738;2022-08-19T09:57:25;23.00;49.80
48551;DHT22;34397;51.176;6.738;2022-08-19T09:59:57;23.20;49.90
48551;DHT22;34397;51.176;6.738;2022-08-19T10:02:29;23.30;49.20
48551;DHT22;34397;51.176;6.738;2022-08-19T10:05:01;23.50;48.90
48551;DHT22;34397;51.176;6.738;2022-08-19T10:07:52;23.70;49.00
48551;DHT22;34397;51.176;6.738;2022-08-19T10:10:25;24.00;48.10
48551;DHT22;34397;51.176;6.738;2022-08-19T10:12:56;24.20;48.00
48551;DHT22;34397;51.176;6.738;2022-08-19T10:15:28;24.50;47.30
48551;DHT22;34397;51.176;6.738;2022-08-19T10:18:00;24.70;46.80
48551;DHT22;34397;51.176;6.738;2022-08-19T10:20:32;25.00;46.60
48551;DHT22;34397;51.176;6.738;2022-08-19T10:23:07;25.30;46.60
48551;DHT22;34397;51.176;6.738;2022-08-19T10:25:39;25.50;46.10
48551;DHT22;34397;51.176;6.738;2022-08-19T10:28:10;25.80;45.30
48551;DHT22;34397;51.176;6.738;2022-08-19T10:30:43;26.00;43.60
48551;DHT22;34397;51.176;6.738;2022-08-19T10:33:15;25.90;43.00
48551;DHT22;34397;51.176;6.738;2022-08-19T10:35:46;26.10;43.70
48551;DHT22;34397;51.176;6.738;2022-08-19T10:38:20;26.30;43.70
48551;DHT22;34397;51.176;6.738;2022-08-19T10:40:52;26.50;43.20
48551;DHT22;34397;51.176;6.738;2022-08-19T10:43:24;26.80;42.60
48551;DHT22;34397;51.176;6.738;2022-08-19T10:45:56;27.00;42.40
48551;DHT22;34397;51.176;6.738;2022-08-19T10:48:29;27.20;41.80
48551;DHT22;34397;51.176;6.738;2022-08-19T10:51:01;27.40;41.90
48551;DHT22;34397;51.176;6.738;2022-08-19T10:53:52;27.60;42.40
48551;DHT22;34397;51.176;6.738;2022-08-19T10:56:24;27.70;41.20
48551;DHT22;34397;51.176;6.738;2022-08-19T10:59:14;27.90;40.90
48551;DHT22;34397;51.176;6.738;2022-08-19T11:01:47;27.90;40.80
48551;DHT22;34397;51.176;6.738;2022-08-19T11:04:19;27.90;40.80
48551;DHT22;34397;51.176;6.738;2022-08-19T11:06:52;27.90;40.90
48551;DHT22;34397;51.176;6.738;2022-08-19T11:09:26;28.00;40.90
48551;DHT22;34397;51.176;6.738;2022-08-19T11:11:57;28.20;40.40
48551;DHT22;34397;51.176;6.738;2022-08-19T11:14:29;28.30;40.00
48551;DHT22;34397;51.176;6.738;2022-08-19T11:17:03;28.50;39.40
48551;DHT22;34397;51.176;6.738;2022-08-19T11:19:35;28.60;39.30
48551;DHT22;34397;51.176;6.738;2022-08-19T11:22:07;28.70;39.30
48551;DHT22;34397;51.176;6.738;2022-08-19T11:24:41;28.90;38.90
48551;DHT22;34397;51.176;6.738;2022-08-19T11:27:12;29.10;38.30
48551;DHT22;34397;51.176;6.738;2022-08-19T11:29:44;29.10;38.70
48551;DHT22;34397;51.176;6.738;2022-08-19T11:32:16;29.10;37.50
48551;DHT22;34397;51.176;6.738;2022-08-19T11:34:47;29.00;38.20
48551;DHT22;34397;51.176;6.738;2022-08-19T11:37:19;29.00;37.10
48551;DHT22;34397;51.176;6.738;2022-08-19T11:39:52;29.00;37.60
48551;DHT22;34397;51.176;6.738;2022-08-19T11:42:24;29.10;38.50
48551;DHT22;34397;51.176;6.738;2022-08-19T11:45:13;29.00;38.10
48551;DHT22;34397;51.176;6.738;2022-08-19T11:47:45;29.10;36.10
48551;DHT22;34397;51.176;6.738;2022-08-19T11:50:17;29.40;37.50
48551;DHT22;34397;51.176;6.738;2022-08-19T11:52:49;29.80;37.60
48551;DHT22;34397;51.176;6.738;2022-08-19T11:55:22;30.10;35.50
48551;DHT22;34397;51.176;6.738;2022-08-19T11:57:54;30.20;35.80
48551;DHT22;34397;51.176;6.738;2022-08-19T12:00:26;30.40;36.70
48551;DHT22;34397;51.176;6.738;2022-08-19T12:02:58;30.60;35.80
48551;DHT22;34397;51.176;6.738;2022-08-19T12:05:29;30.70;35.70
48551;DHT22;34397;51.176;6.738;2022-08-19T12:08:01;30.70;34.00
48551;DHT22;34397;51.176;6.738;2022-08-19T12:10:35;30.80;34.80
48551;DHT22;34397;51.176;6.738;2022-08-19T12:13:06;31.00;35.70
48551;DHT22;34397;51.176;6.738;2022-08-19T12:15:39;31.30;33.90
48551;DHT22;34397;51.176;6.738;2022-08-19T12:18:11;31.50;33.40
48551;DHT22;34397;51.176;6.738;2022-08-19T12:20:43;31.60;34.40
48551;DHT22;34397;51.176;6.738;2022-08-19T12:23:16;31.70;33.10
48551;DHT22;34397;51.176;6.738;2022-08-19T12:25:49;31.70;34.10
48551;DHT22;34397;51.176;6.738;2022-08-19T12:28:23;31.80;34.00
48551;DHT22;34397;51.176;6.738;2022-08-19T12:30:55;31.70;33.50
48551;DHT22;34397;51.176;6.738;2022-08-19T12:33:27;31.50;33.20
48551;DHT22;34397;51.176;6.738;2022-08-19T12:36:00;31.30;34.00
48551;DHT22;34397;51.176;6.738;2022-08-19T12:38:33;31.30;34.40
48551;DHT22;34397;51.176;6.738;2022-08-19T12:41:09;31.30;33.50
48551;DHT22;34397;51.176;6.738;2022-08-19T12:43:42;31.20;33.20
48551;DHT22;34397;51.176;6.738;2022-08-19T12:46:14;31.20;34.00
48551;DHT22;34397;51.176;6.738;2022-08-19T12:48:45;31.20;32.60
48551;DHT22;34397;51.176;6.738;2022-08-19T12:51:18;31.20;32.40
48551;DHT22;34397;51.176;6.738;2022-08-19T12:53:50;31.20;32.90
48551;DHT22;34397;51.176;6.738;2022-08-19T12:56:23;31.40;32.90
48551;DHT22;34397;51.176;6.738;2022-08-19T12:58:55;31.60;32.40
48551;DHT22;34397;51.176;6.738;2022-08-19T13:01:26;31.70;33.00
48551;DHT22;34397;51.176;6.738;2022-08-19T13:04:02;31.90;31.60
48551;DHT22;34397;51.176;6.738;2022-08-19T13:06:34;32.00;32.80
48551;DHT22;34397;51.176;6.738;2022-08-19T13:09:07;32.20;32.10
48551;DHT22;34397;51.176;6.738;2022-08-19T13:11:40;32.20;32.30
48551;DHT22;34397;51.176;6.738;2022-08-19T13:14:13;32.40;31.60
48551;DHT22;34397;51.176;6.738;2022-08-19T13:16:45;32.50;31.40
48551;DHT22;34397;51.176;6.738;2022-08-19T13:19:17;32.50;30.80
48551;DHT22;34397;51.176;6.738;2022-08-19T13:21:51;32.60;30.60
48551;DHT22;34397;51.176;6.738;2022-08-19T13:24:24;32.70;31.30
48551;DHT22;34397;51.176;6.738;2022-08-19T13:26:58;32.80;29.60
48551;DHT22;34397;51.176;6.738;2022-08-19T13:29:30;33.00;31.00
48551;DHT22;34397;51.176;6.738;2022-08-19T13:32:19;33.30;30.60
48551;DHT22;34397;51.176;6.738;2022-08-19T13:35:08;33.40;31.40
48551;DHT22;34397;51.176;6.738;2022-08-19T13:37:40;33.40;30.10
48551;DHT22;34397;51.176;6.738;2022-08-19T13:40:13;33.50;29.80
48551;DHT22;34397;51.176;6.738;2022-08-19T13:42:50;33.30;28.80
48551;DHT22;34397;51.176;6.738;2022-08-19T13:45:24;33.10;30.00
48551;DHT22;34397;51.176;6.738;2022-08-19T13:47:57;33.00;30.30
48551;DHT22;34397;51.176;6.738;2022-08-19T13:50:29;32.90;30.20
48551;DHT22;34397;51.176;6.738;2022-08-19T13:53:02;32.80;30.40
48551;DHT22;34397;51.176;6.738;2022-08-19T13:55:34;32.70;30.80
48551;DHT22;34397;51.176;6.738;2022-08-19T13:58:08;32.60;31.00
48551;DHT22;34397;51.176;6.738;2022-08-19T14:00:42;32.60;30.90
48551;DHT22;34397;51.176;6.738;2022-08-19T14:03:15;32.70;31.00
48551;DHT22;34397;51.176;6.738;2022-08-19T14:05:47;32.80;30.60
48551;DHT22;34397;51.176;6.738;2022-08-19T14:08:18;32.80;30.00
48551;DHT22;34397;51.176;6.738;2022-08-19T14:10:50;32.80;30.20
48551;DHT22;34397;51.176;6.738;2022-08-19T14:13:23;32.70;30.30
48551;DHT22;34397;51.176;6.738;2022-08-19T14:15:55;32.60;30.50
48551;DHT22;34397;51.176;6.738;2022-08-19T14:18:28;32.60;30.40
48551;DHT22;34397;51.176;6.738;2022-08-19T14:20:59;32.60;30.70
48551;DHT22;34397;51.176;6.738;2022-08-19T14:23:31;32.60;30.00
48551;DHT22;34397;51.176;6.738;2022-08-19T14:26:04;32.70;30.00
48551;DHT22;34397;51.176;6.738;2022-08-19T14:28:38;32.70;28.90
48551;DHT22;34397;51.176;6.738;2022-08-19T14:31:12;32.70;29.90
48551;DHT22;34397;51.176;6.738;2022-08-19T15:29:04;28.20;36.40
48551;DHT22;34397;51.176;6.738;2022-08-19T15:35:58;28.10;36.10
48551;DHT22;34397;51.176;6.738;2022-08-19T15:40:37;27.90;36.30
48551;DHT22;34397;51.176;6.738;2022-08-19T15:48:47;27.50;37.90
48551;DHT22;34397;51.176;6.738;2022-08-19T15:51:25;27.20;38.40
48551;DHT22;34397;51.176;6.738;2022-08-19T15:54:00;27.10;38.90
48551;DHT22;34397;51.176;6.738;2022-08-19T15:56:33;27.10;39.40
48551;DHT22;34397;51.176;6.738;2022-08-19T15:59:23;27.30;39.20
48551;DHT22;34397;51.176;6.738;2022-08-19T16:02:13;27.50;39.70
48551;DHT22;34397;51.176;6.738;2022-08-19T16:05:08;27.70;39.60
48551;DHT22;34397;51.176;6.738;2022-08-19T16:07:59;27.80;40.40
48551;DHT22;34397;51.176;6.738;2022-08-19T16:10:31;27.90;40.60
48551;DHT22;34397;51.176;6.738;2022-08-19T16:13:04;28.00;41.00
48551;DHT22;34397;51.176;6.738;2022-08-19T16:15:36;27.90;39.80
48551;DHT22;34397;51.176;6.738;2022-08-19T16:18:13;27.90;38.90
48551;DHT22;34397;51.176;6.738;2022-08-19T16:20:46;27.90;40.60
48551;DHT22;34397;51.176;6.738;2022-08-19T16:23:18;27.80;39.90
48551;DHT22;34397;51.176;6.738;2022-08-19T16:25:54;27.60;40.00
48551;DHT22;34397;51.176;6.738;2022-08-19T16:28:27;27.60;40.20
48551;DHT22;34397;51.176;6.738;2022-08-19T16:30:59;27.50;40.10
48551;DHT22;34397;51.176;6.738;2022-08-19T16:33:31;27.40;40.20
48551;DHT22;34397;51.176;6.738;2022-08-19T16:36:05;27.20;41.10
48551;DHT22;34397;51.176;6.738;2022-08-19T16:38:38;27.10;40.30
48551;DHT22;34397;51.176;6.738;2022-08-19T16:41:11;27.00;40.80
48551;DHT22;34397;51.176;6.738;2022-08-19T16:43:45;26.90;41.30
48551;DHT22;34397;51.176;6.738;2022-08-19T16:46:18;26.80;41.30
48551;DHT22;34397;51.176;6.738;2022-08-19T16:48:51;26.70;41.30
48551;DHT22;34397;51.176;6.738;2022-08-19T16:51:24;26.60;41.50
48551;DHT22;34397;51.176;6.738;2022-08-19T16:53:57;26.60;42.20
48551;DHT22;34397;51.176;6.738;2022-08-19T16:56:29;26.50;41.70
48551;DHT22;34397;51.176;6.738;2022-08-19T16:59:02;26.50;41.90
48551;DHT22;34397;51.176;6.738;2022-08-19T17:01:38;26.50;42.10
48551;DHT22;34397;51.176;6.738;2022-08-19T17:04:11;26.50;41.90
48551;DHT22;34397;51.176;6.738;2022-08-19T17:06:45;26.50;42.20
48551;DHT22;34397;51.176;6.738;2022-08-19T17:09:17;26.50;42.70
48551;DHT22;34397;51.176;6.738;2022-08-19T17:11:49;26.40;41.80
48551;DHT22;34397;51.176;6.738;2022-08-19T17:14:23;26.20;42.10
48551;DHT22;34397;51.176;6.738;2022-08-19T17:16:55;26.10;42.40
48551;DHT22;34397;51.176;6.738;2022-08-19T17:19:27;25.90;42.90